Sheffield, TX

11:56 PM CDT on August 30, 2014 (GMT -0500)
Ozona Municipal | Change Station
CLOSE
Current Station
Airport
Location: Ozona,
Elevation: 2382 ft
Nearby Weather Stations

Elev 2382 ft 30.74 °N, 101.20 °W | Updated 21 minutes ago

Clear
Clear
75 °F
Feels Like 75 °F
N
4
Wind Variable Wind from SE

Today
High -- | Low -- °F
--% Chance of Precip.
Yesterday
High -- | Low -- °F
Precip. -- in
7:22 AM 8:12 PM
Waxing Crescent, 27% visible
Pressure 30.02 in
Visibility 10.0 miles
Clouds Clear
Dew Point 64 °F
Humidity 69%
Rainfall 0.00 in
Snow Depth Not available.
UV 0 out of 12
Pollen 10.00 out of 12
Air Quality Not available.
Flu Activity Not available.
METAR KOZA 310435Z AUTO 13003KT 10SM CLR 24/18 A3002 RMK AO2

More Conditions Fewer Conditions

Pressure 30.02 in
Visibility 10.0 miles
Clouds Clear
Dew Point 64 °F
Humidity 69%
Rainfall 0.00 in
Snow Depth Not available.
UV 0 out of 12
Pollen 10.00 out of 12
Air Quality Not available.
Flu Activity Not available.
METAR KOZA 310435Z AUTO 13003KT 10SM CLR 24/18 A3002 RMK AO2

More Conditions Fewer Conditions

10-Day Weather Forecast

Almanac

Astronomy

Aug. 30, 2014 Rise Set
Actual Time 7:22 AM CDT 8:12 PM CDT
Civil Twilight 6:58 AM CDT 8:37 PM CDT
Nautical Twilight 6:29 AM CDT 9:06 PM CDT
Astronomical Twilight 5:59 AM CDT 9:35 PM CDT
Moon 11:50 AM CDT (8/30) 11:11 PM CDT (8/30)
Length of Visible Light 13h 39m
Length of Day
12h 49m
Tomorrow will be 1m 45s shorter.
Waxing Crescent, 27% of the Moon is Illuminated
Aug 31
Waxing Crescent
Sep 2
First Quarter
Sep 8
Full
Sep 15
Last Quarter
Sep 24
New

Yesterday's Extremes

State Highs State Lows

Community

WunderPhotos

Upload Photos

1,748,783 photos uploaded!

Nearby

Snow Depth

Station Depth Elevation
No new snow has been reported.

Earthquake Activity

City Distance Mag. Time & Date
No recent earthquake activity has been reported nearby.
Minimum magnitude displayed is 2.5.

Coastal Water Temperatures

Place Temperature
No Stations Reporting

Nearby Weather Stations